createdAt,value
2024-02-26T00:01:10.442Z,95246.47
2024-02-26T00:03:38.568Z,95242.88
2024-02-26T00:06:09.353Z,95235.47
2024-02-26T00:08:40.138Z,95236.38
2024-02-26T00:11:07.549Z,95242.13
2024-02-26T00:13:41.068Z,95237.88
2024-02-26T00:16:11.234Z,95239.81
2024-02-26T00:18:41.014Z,95240.09
2024-02-26T00:21:08.917Z,95227.44
2024-02-26T00:23:36.303Z,95237.22
2024-02-26T00:26:04.026Z,95233.41
2024-02-26T00:28:31.171Z,95229.22
2024-02-26T00:30:58.692Z,95218.31
2024-02-26T00:33:26.624Z,95230.19
2024-02-26T00:35:54.528Z,95234.97
2024-02-26T00:41:11.204Z,95238.09
2024-02-26T00:46:35.183Z,95233.16
2024-02-26T00:49:08.897Z,95237.00
2024-02-26T01:04:19.898Z,95246.53
2024-02-26T01:06:55.446Z,95246.22
2024-02-26T01:09:22.950Z,95248.91
2024-02-26T01:14:54.117Z,95244.34
2024-02-26T01:17:21.824Z,95244.75
2024-02-26T01:26:18.410Z,95241.66
2024-02-26T01:28:45.827Z,95225.59
2024-02-26T01:31:13.197Z,95223.41
2024-02-26T01:33:40.548Z,95228.31
2024-02-26T01:36:08.323Z,95229.66
2024-02-26T01:38:47.862Z,95221.34
2024-02-26T01:41:35.246Z,95227.31
2024-02-26T01:44:17.495Z,95235.75
2024-02-26T01:47:04.813Z,95246.78
2024-02-26T01:49:52.022Z,95245.03
2024-02-26T01:52:22.500Z,95248.13
2024-02-26T01:54:49.688Z,95252.41
2024-02-26T01:57:17.325Z,95245.44
2024-02-26T01:59:48.304Z,95242.47
2024-02-26T02:02:28.945Z,95255.88
2024-02-26T02:05:04.165Z,95254.03
2024-02-26T02:07:32.854Z,95248.97
2024-02-26T02:10:00.845Z,95249.38
2024-02-26T02:12:29.061Z,95241.03
2024-02-26T02:14:57.308Z,95245.16
2024-02-26T02:17:25.260Z,95241.41
2024-02-26T02:19:54.965Z,95235.56
2024-02-26T02:22:23.129Z,95244.00
2024-02-26T02:24:51.308Z,95240.47
2024-02-26T02:27:19.649Z,95232.28
2024-02-26T02:29:48.520Z,95233.66
2024-02-26T02:32:16.236Z,95216.44
2024-02-26T02:34:44.694Z,95206.97
2024-02-26T02:37:13.488Z,95208.34
2024-02-26T02:39:42.028Z,95191.75
2024-02-26T02:42:10.040Z,95200.94
2024-02-26T02:44:40.308Z,95191.75
2024-02-26T02:47:08.283Z,95201.28
2024-02-26T02:49:37.423Z,95193.81
2024-02-26T02:52:06.250Z,95192.78
2024-02-26T02:54:33.781Z,95181.69
2024-02-26T02:57:01.863Z,95180.25
2024-02-26T02:59:29.752Z,95176.25
2024-02-26T03:01:57.660Z,95177.28
2024-02-26T03:04:26.343Z,95170.19
2024-02-26T03:06:54.088Z,95172.41
2024-02-26T03:09:22.201Z,95179.22
2024-02-26T03:11:50.328Z,95164.53
2024-02-26T03:14:17.915Z,95162.59
2024-02-26T03:16:47.335Z,95155.34
2024-02-26T03:19:15.006Z,95138.94
2024-02-26T03:21:42.380Z,95142.44
2024-02-26T03:24:09.625Z,95147.06
2024-02-26T03:26:36.805Z,95159.06
2024-02-26T03:29:06.412Z,95154.91
2024-02-26T03:31:33.599Z,95161.84
2024-02-26T03:34:01.256Z,95158.59
2024-02-26T03:36:28.764Z,95158.03
2024-02-26T03:38:55.780Z,95159.50
2024-02-26T03:41:23.219Z,95159.13
2024-02-26T03:43:50.678Z,95163.28
2024-02-26T03:46:17.604Z,95169.66
2024-02-26T03:48:45.174Z,95159.50
2024-02-26T03:51:12.519Z,95148.56
2024-02-26T03:53:39.998Z,95153.88
2024-02-26T03:56:07.538Z,95153.81
2024-02-26T03:58:34.377Z,95135.00
2024-02-26T04:01:01.751Z,95119.84
2024-02-26T04:03:29.057Z,95118.25
2024-02-26T04:05:56.545Z,95131.53
2024-02-26T04:08:23.843Z,95131.38
2024-02-26T04:10:51.328Z,95114.84
2024-02-26T04:13:18.687Z,95140.47
2024-02-26T04:15:47.838Z,95141.75
2024-02-26T04:18:15.253Z,95141.28
2024-02-26T04:20:43.475Z,95146.47
2024-02-26T04:23:11.046Z,95149.25
2024-02-26T04:25:38.509Z,95148.09
2024-02-26T04:28:06.365Z,95136.13
2024-02-26T04:30:33.869Z,95149.59
2024-02-26T04:33:01.648Z,95149.16
2024-02-26T04:35:29.628Z,95144.59
2024-02-26T04:37:57.616Z,95149.78
2024-02-26T04:40:25.884Z,95143.69
2024-02-26T04:42:53.218Z,95144.13
2024-02-26T04:45:20.969Z,95140.41
2024-02-26T04:56:27.289Z,95164.44
2024-02-26T04:58:54.854Z,95164.06
2024-02-26T05:01:22.894Z,95168.00
2024-02-26T05:03:50.495Z,95158.81
2024-02-26T05:06:18.316Z,95160.44
2024-02-26T05:08:47.501Z,95154.03
2024-02-26T05:11:15.280Z,95176.41
2024-02-26T05:13:43.267Z,95169.44
2024-02-26T05:16:10.974Z,95162.31
2024-02-26T05:18:39.138Z,95155.09
2024-02-26T05:21:07.197Z,95137.25
2024-02-26T05:23:36.775Z,95139.19
2024-02-26T05:26:04.013Z,95127.69
2024-02-26T05:28:31.387Z,95123.78
2024-02-26T05:30:59.195Z,95129.81
2024-02-26T05:33:27.296Z,95144.38
2024-02-26T05:35:55.218Z,95145.69
2024-02-26T05:38:24.042Z,95130.09
2024-02-26T05:40:51.764Z,95138.06
2024-02-26T05:43:22.470Z,95122.03
2024-02-26T05:45:50.197Z,95117.19
2024-02-26T05:48:18.793Z,95122.25
2024-02-26T05:50:46.862Z,95122.69
2024-02-26T05:53:14.721Z,95123.44
2024-02-26T05:55:42.107Z,95113.13
2024-02-26T05:58:09.635Z,95110.00
2024-02-26T06:00:36.785Z,95104.16
2024-02-26T06:03:04.077Z,95115.47
2024-02-26T06:05:31.292Z,95114.59
2024-02-26T06:07:58.164Z,95130.50
2024-02-26T06:10:25.407Z,95121.84
2024-02-26T06:12:53.081Z,95127.78
2024-02-26T06:15:20.212Z,95124.56
2024-02-26T06:17:47.796Z,95125.25
2024-02-26T06:20:16.320Z,95134.69
2024-02-26T06:22:43.467Z,95142.38
2024-02-26T06:25:10.624Z,95126.31
2024-02-26T06:27:37.699Z,95114.84
2024-02-26T06:30:05.410Z,95120.34
2024-02-26T06:32:32.994Z,95121.25
2024-02-26T06:35:01.832Z,95139.13
2024-02-26T06:37:29.639Z,95123.19
2024-02-26T06:39:57.006Z,95115.72
2024-02-26T06:42:26.133Z,95119.78
2024-02-26T06:44:53.358Z,95124.22
2024-02-26T06:47:20.566Z,95098.06
2024-02-26T06:49:47.999Z,95113.22
2024-02-26T06:52:15.311Z,95132.75
2024-02-26T06:54:43.108Z,95136.19
2024-02-26T06:57:12.226Z,95133.16
2024-02-26T06:59:40.325Z,95142.31
2024-02-26T07:02:08.179Z,95136.97
2024-02-26T07:04:35.870Z,95142.72
2024-02-26T07:07:03.705Z,95146.19
2024-02-26T07:09:31.658Z,95130.56
2024-02-26T07:12:01.597Z,95133.69
2024-02-26T07:14:29.503Z,95125.91
2024-02-26T07:16:57.157Z,95118.31
2024-02-26T07:19:27.947Z,95117.50
2024-02-26T07:21:58.089Z,95125.31
2024-02-26T07:24:32.258Z,95132.75
2024-02-26T07:27:00.440Z,95142.03
2024-02-26T07:29:30.293Z,95142.06
2024-02-26T07:31:57.999Z,95142.19
2024-02-26T07:34:36.150Z,95160.03
2024-02-26T07:40:07.978Z,95157.22
2024-02-26T07:45:47.498Z,95157.03
2024-02-26T07:48:24.006Z,95158.28
2024-02-26T07:50:55.855Z,95154.25
2024-02-26T07:53:24.953Z,95176.09
2024-02-26T07:55:52.535Z,95176.94
2024-02-26T07:58:22.347Z,95182.13
2024-02-26T08:00:51.148Z,95173.53
2024-02-26T08:03:19.386Z,95173.31
2024-02-26T08:05:47.004Z,95173.56
2024-02-26T08:08:14.237Z,95166.59
2024-02-26T08:10:41.763Z,95155.53
2024-02-26T08:13:08.855Z,95161.56
2024-02-26T08:15:37.856Z,95151.94
2024-02-26T08:18:05.353Z,95154.25
2024-02-26T08:20:32.857Z,95155.22
2024-02-26T08:22:59.954Z,95159.88
2024-02-26T08:25:27.643Z,95145.53
2024-02-26T08:27:54.912Z,95149.81
2024-02-26T08:30:28.138Z,95151.28
2024-02-26T08:32:55.908Z,95159.78
2024-02-26T08:35:23.623Z,95167.78
2024-02-26T08:37:54.461Z,95168.94
2024-02-26T08:40:23.987Z,95171.56
2024-02-26T08:42:51.174Z,95164.78
2024-02-26T08:45:19.656Z,95176.16
2024-02-26T08:47:47.747Z,95192.34
2024-02-26T08:50:15.633Z,95193.84
2024-02-26T08:52:43.843Z,95189.16
2024-02-26T08:55:11.194Z,95193.38
2024-02-26T08:57:41.950Z,95182.53
2024-02-26T09:00:09.250Z,95188.22
2024-02-26T09:05:48.426Z,95197.38
2024-02-26T09:08:19.589Z,95188.88
2024-02-26T09:10:47.945Z,95183.53
2024-02-26T09:13:21.665Z,95184.06
2024-02-26T09:15:56.867Z,95180.78
2024-02-26T09:18:24.562Z,95178.22
2024-02-26T09:20:51.952Z,95175.09
2024-02-26T09:23:19.676Z,95193.50
2024-02-26T09:25:46.779Z,95206.50
2024-02-26T09:28:14.227Z,95206.16
2024-02-26T09:30:41.553Z,95205.47
2024-02-26T09:33:08.702Z,95201.41
2024-02-26T09:35:36.096Z,95212.84
2024-02-26T09:38:04.034Z,95213.50
2024-02-26T09:40:31.992Z,95222.97
2024-02-26T09:42:59.425Z,95210.13
2024-02-26T09:45:26.888Z,95215.16
2024-02-26T09:47:54.407Z,95210.78
2024-02-26T09:50:21.614Z,95211.91
2024-02-26T09:52:48.906Z,95219.09
2024-02-26T09:55:16.509Z,95212.75
2024-02-26T09:57:43.834Z,95217.41
2024-02-26T10:00:11.199Z,95213.19
2024-02-26T10:02:38.658Z,95223.47
2024-02-26T10:05:05.950Z,95237.47
2024-02-26T10:07:33.448Z,95233.41
2024-02-26T10:10:00.843Z,95240.88
2024-02-26T10:12:28.447Z,95237.84
2024-02-26T10:14:56.818Z,95250.75
2024-02-26T10:17:26.059Z,95252.28
2024-02-26T10:19:57.860Z,95256.72
2024-02-26T10:22:29.326Z,95251.59
2024-02-26T10:24:57.838Z,95250.63
2024-02-26T10:27:26.471Z,95244.63
2024-02-26T10:29:54.073Z,95246.28
2024-02-26T10:32:23.141Z,95252.75
2024-02-26T10:35:02.877Z,95251.13
2024-02-26T10:37:33.959Z,95255.53
2024-02-26T10:40:02.595Z,95261.06
2024-02-26T10:42:30.315Z,95267.41
2024-02-26T10:44:57.693Z,95268.88
2024-02-26T10:47:25.127Z,95256.69
2024-02-26T10:49:52.500Z,95254.22
2024-02-26T10:52:20.250Z,95251.94
2024-02-26T10:54:47.929Z,95257.63
2024-02-26T10:57:15.396Z,95264.13
2024-02-26T10:59:42.569Z,95259.91
2024-02-26T11:02:13.216Z,95260.22
2024-02-26T11:04:42.829Z,95261.69
2024-02-26T11:07:11.605Z,95271.47
2024-02-26T11:09:39.395Z,95276.38
2024-02-26T11:12:07.033Z,95264.16
2024-02-26T11:14:34.643Z,95262.53
2024-02-26T11:17:01.833Z,95268.06
2024-02-26T11:19:31.494Z,95266.25
2024-02-26T11:22:01.759Z,95272.44
2024-02-26T11:24:31.667Z,95265.19
2024-02-26T11:26:59.187Z,95258.13
2024-02-26T11:29:26.630Z,95258.06
2024-02-26T11:31:53.834Z,95263.59
2024-02-26T11:34:21.109Z,95257.25
2024-02-26T11:36:48.828Z,95249.16
2024-02-26T11:39:17.502Z,95242.41
2024-02-26T11:41:45.558Z,95243.09
2024-02-26T11:44:13.103Z,95242.38
2024-02-26T11:46:41.255Z,95240.34
2024-02-26T11:49:08.813Z,95239.06
2024-02-26T11:51:36.200Z,95231.25
2024-02-26T11:54:03.526Z,95236.50
2024-02-26T11:56:32.877Z,95245.13
2024-02-26T11:59:00.534Z,95241.81
2024-02-26T12:01:28.087Z,95248.91
2024-02-26T12:03:55.336Z,95250.63
2024-02-26T12:06:22.834Z,95239.78
2024-02-26T12:08:53.417Z,95239.56
2024-02-26T12:11:20.907Z,95234.28
2024-02-26T12:13:48.177Z,95234.09
2024-02-26T12:16:15.527Z,95233.75
2024-02-26T12:18:43.343Z,95226.09
2024-02-26T12:21:10.680Z,95225.78
2024-02-26T12:23:39.258Z,95229.75
2024-02-26T12:28:53.282Z,95225.84
2024-02-26T12:31:20.559Z,95217.97
2024-02-26T12:33:48.150Z,95206.47
2024-02-26T12:36:15.785Z,95213.13
2024-02-26T12:38:43.882Z,95217.16
2024-02-26T12:41:11.367Z,95213.50
2024-02-26T12:43:41.780Z,95209.53
2024-02-26T12:46:12.221Z,95208.78
2024-02-26T12:48:40.686Z,95208.88
2024-02-26T12:51:08.581Z,95216.50
2024-02-26T12:53:36.364Z,95213.03
2024-02-26T12:56:08.233Z,95228.88
2024-02-26T12:58:42.000Z,95222.84
2024-02-26T13:01:09.895Z,95217.00
2024-02-26T13:03:39.557Z,95212.59
2024-02-26T13:06:07.637Z,95213.41
2024-02-26T13:08:35.417Z,95209.16
2024-02-26T13:11:03.448Z,95202.75
2024-02-26T13:13:31.728Z,95196.81
2024-02-26T13:16:00.704Z,95200.63
2024-02-26T13:18:28.766Z,95197.38
2024-02-26T13:20:58.790Z,95200.53
2024-02-26T13:23:29.765Z,95205.41
2024-02-26T13:25:57.316Z,95214.53
2024-02-26T13:28:25.057Z,95212.03
2024-02-26T13:30:54.003Z,95208.66
2024-02-26T13:33:22.527Z,95214.50
2024-02-26T13:35:50.608Z,95211.47
2024-02-26T13:38:19.554Z,95213.81
2024-02-26T13:40:50.196Z,95213.16
2024-02-26T13:43:19.655Z,95204.88
2024-02-26T13:45:47.746Z,95217.19
2024-02-26T13:48:18.898Z,95217.91
2024-02-26T13:50:47.350Z,95216.69
2024-02-26T13:53:15.628Z,95218.84
2024-02-26T13:55:42.950Z,95223.56
2024-02-26T13:58:10.406Z,95215.25
2024-02-26T14:00:37.788Z,95223.53
2024-02-26T14:03:05.288Z,95220.56
2024-02-26T14:05:32.496Z,95226.66
2024-02-26T14:08:00.314Z,95222.00
2024-02-26T14:10:27.609Z,95223.94
2024-02-26T14:12:54.977Z,95226.69
2024-02-26T14:15:22.334Z,95220.69
2024-02-26T14:17:49.825Z,95219.53
2024-02-26T14:20:16.952Z,95226.81
2024-02-26T14:22:44.717Z,95221.69
2024-02-26T14:25:11.846Z,95219.81
2024-02-26T14:27:39.920Z,95226.97
2024-02-26T14:30:10.581Z,95222.69
2024-02-26T14:32:38.447Z,95222.44
2024-02-26T14:35:11.752Z,95221.88
2024-02-26T14:37:42.438Z,95222.19
2024-02-26T14:40:12.053Z,95212.50
2024-02-26T14:42:39.773Z,95227.88
2024-02-26T14:45:12.439Z,95235.78
2024-02-26T14:47:39.987Z,95229.81
2024-02-26T14:50:08.065Z,95224.69
2024-02-26T14:52:36.824Z,95243.53
2024-02-26T14:55:05.371Z,95240.38
2024-02-26T14:57:34.736Z,95238.66
2024-02-26T15:00:02.538Z,95249.81
2024-02-26T15:02:31.173Z,95254.31
2024-02-26T15:04:59.622Z,95250.88
2024-02-26T15:07:28.507Z,95247.25
2024-02-26T15:09:56.708Z,95243.09
2024-02-26T15:12:26.731Z,95249.06
2024-02-26T15:14:55.286Z,95238.16
2024-02-26T15:17:24.366Z,95238.34
2024-02-26T15:19:53.417Z,95233.28
2024-02-26T15:22:20.915Z,95242.03
2024-02-26T15:24:48.638Z,95238.66
2024-02-26T15:27:16.091Z,95226.69
2024-02-26T15:29:44.579Z,95235.00
2024-02-26T15:32:12.093Z,95234.56
2024-02-26T15:34:40.440Z,95232.75
2024-02-26T15:37:10.890Z,95235.19
2024-02-26T15:39:39.992Z,95224.94
2024-02-26T15:42:09.136Z,95222.47
2024-02-26T15:44:38.083Z,95222.97
2024-02-26T15:47:08.757Z,95218.03
2024-02-26T15:49:37.531Z,95220.16
2024-02-26T15:52:07.637Z,95219.19
2024-02-26T15:54:39.066Z,95219.47
2024-02-26T15:57:08.418Z,95222.25
2024-02-26T15:59:36.096Z,95226.84
2024-02-26T16:02:06.868Z,95228.38
2024-02-26T16:04:44.944Z,95233.00
2024-02-26T16:07:16.400Z,95237.44
2024-02-26T16:09:53.983Z,95236.28
2024-02-26T16:12:21.481Z,95242.59
2024-02-26T16:14:51.759Z,95240.97
2024-02-26T16:17:19.207Z,95249.47
2024-02-26T16:19:47.929Z,95246.69
2024-02-26T16:22:16.420Z,95249.28
2024-02-26T16:24:44.356Z,95263.72
2024-02-26T16:27:13.308Z,95255.59
2024-02-26T16:29:41.510Z,95269.03
2024-02-26T16:32:09.362Z,95271.25
2024-02-26T16:34:38.398Z,95268.53
2024-02-26T16:37:09.565Z,95287.63
2024-02-26T16:39:37.237Z,95291.13
2024-02-26T16:42:06.639Z,95292.56
2024-02-26T16:44:42.554Z,95292.44
2024-02-26T16:47:13.563Z,95300.94
2024-02-26T16:50:04.949Z,95300.16
2024-02-26T16:52:33.917Z,95307.19
2024-02-26T16:55:03.699Z,95307.34
2024-02-26T16:57:37.480Z,95300.69
2024-02-26T17:00:09.090Z,95296.63
2024-02-26T17:02:37.475Z,95298.09
2024-02-26T17:05:13.716Z,95313.56
2024-02-26T17:07:44.973Z,95314.97
2024-02-26T17:10:13.547Z,95310.56
2024-02-26T17:12:43.162Z,95315.84
2024-02-26T17:15:11.228Z,95326.81
2024-02-26T17:17:40.046Z,95322.44
2024-02-26T17:20:07.721Z,95323.06
2024-02-26T17:22:37.076Z,95325.19
2024-02-26T17:25:04.875Z,95337.59
2024-02-26T17:27:36.064Z,95350.63
2024-02-26T17:30:06.745Z,95344.28
2024-02-26T17:32:43.829Z,95349.34
2024-02-26T17:35:11.621Z,95348.81
2024-02-26T17:37:39.791Z,95350.09
2024-02-26T17:40:07.838Z,95355.00
2024-02-26T17:42:35.990Z,95362.69
2024-02-26T17:45:03.953Z,95367.56
2024-02-26T17:47:31.883Z,95364.78
2024-02-26T17:49:59.375Z,95363.97
2024-02-26T17:55:22.836Z,95368.69
2024-02-26T17:57:54.154Z,95380.22
2024-02-26T18:00:21.940Z,95384.28
2024-02-26T18:03:01.605Z,95385.03
2024-02-26T18:05:31.859Z,95391.03
2024-02-26T18:08:00.524Z,95385.97
2024-02-26T18:10:28.597Z,95395.38
2024-02-26T18:12:55.741Z,95402.66
2024-02-26T18:15:33.298Z,95407.97
2024-02-26T18:18:31.650Z,95407.38
2024-02-26T18:20:59.060Z,95415.03
2024-02-26T18:25:49.684Z,95413.69
2024-02-26T18:26:14.077Z,95417.94
2024-02-26T18:28:41.921Z,95418.66
2024-02-26T18:31:11.167Z,95423.16
2024-02-26T18:33:40.413Z,95421.31
2024-02-26T18:36:07.620Z,95424.28
2024-02-26T18:38:35.169Z,95431.44
2024-02-26T18:41:02.569Z,95439.72
2024-02-26T18:43:30.075Z,95449.06
2024-02-26T18:45:57.249Z,95437.56
2024-02-26T18:48:27.091Z,95441.16
2024-02-26T18:50:57.025Z,95439.56
2024-02-26T18:53:26.234Z,95441.41
2024-02-26T18:55:53.675Z,95447.13
2024-02-26T18:58:22.709Z,95451.69
2024-02-26T19:00:53.614Z,95459.91
2024-02-26T19:03:24.962Z,95460.78
2024-02-26T19:05:52.378Z,95461.09
2024-02-26T19:08:22.072Z,95474.63
2024-02-26T19:10:49.499Z,95469.63
2024-02-26T19:13:16.827Z,95471.88
2024-02-26T19:15:46.451Z,95474.09
2024-02-26T19:18:24.139Z,95472.28
2024-02-26T19:20:52.005Z,95482.91
2024-02-26T19:23:20.215Z,95485.75
2024-02-26T19:25:49.508Z,95496.03
2024-02-26T19:28:50.726Z,95493.09
2024-02-26T19:31:55.345Z,95494.59
2024-02-26T19:33:59.130Z,95490.44
2024-02-26T19:36:38.638Z,95499.16
2024-02-26T19:39:06.862Z,95500.38
2024-02-26T19:41:34.732Z,95503.22
2024-02-26T19:44:54.608Z,95517.19
2024-02-26T19:46:58.913Z,95512.09
2024-02-26T19:49:29.261Z,95518.41
2024-02-26T19:51:56.795Z,95524.38
2024-02-26T19:54:25.809Z,95541.38
2024-02-26T19:56:53.605Z,95543.00
2024-02-26T19:59:22.284Z,95551.22
2024-02-26T20:01:50.884Z,95551.25
2024-02-26T20:04:19.191Z,95552.09
2024-02-26T20:06:46.980Z,95557.78
2024-02-26T20:09:15.717Z,95562.38
2024-02-26T20:12:06.256Z,95574.69
2024-02-26T20:14:37.756Z,95569.00
2024-02-26T20:17:07.271Z,95584.88
2024-02-26T20:19:34.538Z,95579.78
2024-02-26T20:22:04.830Z,95584.69
2024-02-26T20:24:32.538Z,95585.72
2024-02-26T20:27:14.586Z,95583.19
2024-02-26T20:29:55.394Z,95582.22
2024-02-26T20:32:22.759Z,95583.72
2024-02-26T20:34:52.481Z,95590.63
2024-02-26T20:37:43.385Z,95589.91
2024-02-26T20:40:07.859Z,95596.13
2024-02-26T20:42:36.706Z,95601.41
2024-02-26T20:45:07.245Z,95593.69
2024-02-26T20:47:34.576Z,95601.84
2024-02-26T20:50:02.101Z,95606.81
2024-02-26T20:52:29.246Z,95613.13
2024-02-26T20:55:07.227Z,95621.28
2024-02-26T20:57:36.394Z,95626.13
2024-02-26T21:00:04.071Z,95621.19
2024-02-26T21:02:39.046Z,95624.41
2024-02-26T21:05:08.086Z,95617.66
2024-02-26T21:07:35.892Z,95623.13
2024-02-26T21:10:52.792Z,95628.69
2024-02-26T21:12:58.666Z,95629.34
2024-02-26T21:15:26.820Z,95632.69
2024-02-26T21:17:54.845Z,95638.06
2024-02-26T21:20:22.915Z,95642.88
2024-02-26T21:22:51.710Z,95646.59
2024-02-26T21:25:19.647Z,95642.16
2024-02-26T21:27:51.894Z,95655.69
2024-02-26T21:30:50.050Z,95674.00
2024-02-26T21:33:20.954Z,95669.41
2024-02-26T21:35:51.148Z,95670.13
2024-02-26T21:38:18.467Z,95671.13
2024-02-26T21:40:46.121Z,95662.34
2024-02-26T21:43:13.945Z,95671.47
2024-02-26T21:45:46.383Z,95669.41
2024-02-26T21:54:26.453Z,95689.16
2024-02-26T21:56:53.980Z,95689.84
2024-02-26T21:59:25.706Z,95698.84
2024-02-26T22:01:54.388Z,95698.69
2024-02-26T22:04:21.896Z,95704.16
2024-02-26T22:06:49.221Z,95701.03
2024-02-26T22:09:16.562Z,95704.19
2024-02-26T22:11:46.472Z,95715.28
2024-02-26T22:15:02.793Z,95709.88
2024-02-26T22:17:11.165Z,95699.41
2024-02-26T22:19:38.422Z,95705.44
2024-02-26T22:22:06.079Z,95715.28
2024-02-26T22:24:33.462Z,95708.41
2024-02-26T22:27:01.376Z,95725.56
2024-02-26T22:29:30.368Z,95740.28
2024-02-26T22:31:58.053Z,95728.03
2024-02-26T22:34:33.295Z,95727.72
2024-02-26T22:37:02.496Z,95738.78
2024-02-26T22:39:29.825Z,95749.84
2024-02-26T22:41:57.074Z,95741.13
2024-02-26T22:44:24.370Z,95740.38
2024-02-26T22:46:51.509Z,95744.75
2024-02-26T22:49:21.591Z,95741.38
2024-02-26T22:51:50.485Z,95744.75
2024-02-26T22:54:17.812Z,95746.31
2024-02-26T22:56:48.583Z,95745.69
2024-02-26T22:59:15.928Z,95756.19
2024-02-26T23:01:43.319Z,95750.47
2024-02-26T23:04:11.098Z,95754.78
2024-02-26T23:06:38.454Z,95749.72
2024-02-26T23:09:06.068Z,95756.94
2024-02-26T23:11:33.293Z,95753.91
2024-02-26T23:14:00.528Z,95755.13
2024-02-26T23:16:28.319Z,95757.78
2024-02-26T23:18:55.901Z,95758.97
2024-02-26T23:21:23.773Z,95766.09
2024-02-26T23:23:50.794Z,95766.25
2024-02-26T23:26:19.828Z,95771.34
2024-02-26T23:28:50.940Z,95761.91
2024-02-26T23:31:18.218Z,95765.41
2024-02-26T23:33:46.435Z,95777.94
2024-02-26T23:36:14.527Z,95767.75
2024-02-26T23:38:41.750Z,95770.59
2024-02-26T23:41:09.340Z,95775.28
2024-02-26T23:43:37.007Z,95768.41
2024-02-26T23:46:05.391Z,95770.44
2024-02-26T23:48:32.609Z,95772.25
2024-02-26T23:51:00.179Z,95773.16
2024-02-26T23:53:27.830Z,95786.19
2024-02-26T23:55:55.210Z,95783.22
2024-02-26T23:58:22.397Z,95777.44
